Time;durP1;ratioP1;P1;durP2;ratioP2;P2;SDS_P1;SDS_P2;PMS_P1;PMS_P2;Temp;Humidity;BMP_temperature;BMP_pressure;BME280_temperature;BME280_humidity;BME280_pressure;Samples;Min_cycle;Max_cycle;Signal;HPM_P1;HPM_P2
2022/01/09 00:00:08;;;;;;;0.00;0.00;;;;;;;5.54;86.16;96577.16;4993856;28;20187;-54
2022/01/09 00:02:40;;;;;;;0.10;0.10;;;;;;;5.46;87.72;96567.63;4998826;28;20224;-55
2022/01/09 00:05:08;;;;;;;0.10;0.10;;;;;;;5.39;88.84;96561.53;5009024;28;20696;-56
2022/01/09 00:07:34;;;;;;;0.10;0.10;;;;;;;5.34;89.74;96557.84;5013878;28;20232;-52
2022/01/09 00:10:01;;;;;;;0.10;0.10;;;;;;;5.29;89.79;96537.69;5013150;28;20271;-56
2022/01/09 00:12:28;;;;;;;0.10;0.10;;;;;;;5.28;90.57;96544.63;5014072;28;20251;-53
2022/01/09 00:14:55;;;;;;;2.67;0.20;;;;;;;5.27;90.50;96527.47;5013722;28;20429;-56
2022/01/09 00:17:22;;;;;;;0.30;0.10;;;;;;;5.32;89.88;96530.38;5013654;28;20217;-55
2022/01/09 00:19:50;;;;;;;0.33;0.20;;;;;;;5.40;87.91;96531.31;5013389;28;20685;-52
2022/01/09 00:22:23;;;;;;;0.10;0.10;;;;;;;5.39;89.70;96519.34;5013829;28;20181;-59
2022/01/09 00:24:50;;;;;;;0.10;0.10;;;;;;;5.43;88.74;96499.91;5013617;28;20243;-59
2022/01/09 00:27:16;;;;;;;0.30;0.20;;;;;;;5.49;87.43;96511.34;5013174;28;20643;-58
2022/01/09 00:29:43;;;;;;;0.00;0.00;;;;;;;5.55;86.91;96489.97;5012833;28;20185;-59
2022/01/09 00:32:10;;;;;;;0.17;0.00;;;;;;;5.56;86.74;96510.50;5013757;28;20219;-59
2022/01/09 00:34:37;;;;;;;0.23;0.10;;;;;;;5.55;87.27;96488.19;5013356;28;20278;-59
2022/01/09 00:37:05;;;;;;;0.20;0.10;;;;;;;5.60;87.13;96514.38;5013323;28;20299;-59
2022/01/09 00:39:32;;;;;;;0.00;0.00;;;;;;;5.75;85.52;96513.63;5013101;28;20205;-59
2022/01/09 00:41:59;;;;;;;0.10;0.10;;;;;;;5.74;85.77;96489.50;5013440;28;20184;-59
2022/01/09 00:44:25;;;;;;;0.10;0.10;;;;;;;5.75;85.31;96498.09;5013495;28;20216;-60
2022/01/09 00:46:56;;;;;;;0.10;0.10;;;;;;;5.75;86.18;96498.91;5012657;28;20706;-59
2022/01/09 00:49:23;;;;;;;0.70;0.10;;;;;;;5.73;86.70;96505.22;5007635;28;20695;-59
2022/01/09 00:51:50;;;;;;;0.20;0.20;;;;;;;5.74;85.70;96480.97;4993156;28;20596;-59
2022/01/09 00:54:18;;;;;;;0.20;0.10;;;;;;;5.79;84.48;96476.06;4993621;28;20181;-59
2022/01/09 00:56:45;;;;;;;0.40;0.10;;;;;;;5.83;84.25;96473.91;4993397;28;20288;-58
2022/01/09 00:59:12;;;;;;;0.17;0.10;;;;;;;5.84;84.46;96467.75;4993154;28;20275;-59
2022/01/09 01:01:38;;;;;;;0.47;0.10;;;;;;;5.89;83.16;96455.91;4992998;28;20225;-59
2022/01/09 01:04:05;;;;;;;1.47;0.10;;;;;;;5.91;84.00;96451.34;5000722;28;20194;-59
2022/01/09 01:06:32;;;;;;;0.00;0.00;;;;;;;5.93;82.61;96458.97;5012690;28;20189;-59
2022/01/09 01:08:59;;;;;;;0.10;0.10;;;;;;;5.94;82.25;96465.75;5012509;28;20283;-57
2022/01/09 01:11:27;;;;;;;0.10;0.10;;;;;;;5.95;83.37;96467.34;5012063;28;20209;-59
2022/01/09 01:13:54;;;;;;;0.20;0.13;;;;;;;6.02;82.59;96467.47;5013019;28;20558;-60
2022/01/09 01:16:20;;;;;;;0.23;0.10;;;;;;;5.99;82.37;96491.91;5012928;28;20181;-60
2022/01/09 01:18:47;;;;;;;0.20;0.10;;;;;;;5.96;83.51;96507.00;5012787;28;20722;-59
2022/01/09 01:21:14;;;;;;;0.10;0.10;;;;;;;6.06;81.06;96479.09;5012114;28;20276;-59
2022/01/09 01:23:41;;;;;;;0.03;0.03;;;;;;;6.05;82.68;96508.56;5012401;28;20272;-60
2022/01/09 01:26:08;;;;;;;0.07;0.00;;;;;;;6.11;81.18;96497.50;5011840;28;20279;-58
2022/01/09 01:28:36;;;;;;;1.20;0.10;;;;;;;6.04;82.51;96505.19;5011954;28;20236;-59
2022/01/09 01:31:03;;;;;;;0.20;0.10;;;;;;;5.99;83.04;96496.28;5012089;28;20244;-59
2022/01/09 01:33:30;;;;;;;0.37;0.20;;;;;;;6.03;82.02;96520.88;5012616;28;20337;-59
2022/01/09 01:35:56;;;;;;;0.20;0.10;;;;;;;6.03;81.96;96518.28;5012382;28;20279;-60
2022/01/09 01:38:23;;;;;;;0.20;0.20;;;;;;;6.10;81.41;96519.22;5011785;28;20706;-59
2022/01/09 01:40:50;;;;;;;0.40;0.13;;;;;;;6.10;81.45;96521.81;5011844;28;20232;-59
2022/01/09 01:43:17;;;;;;;0.03;0.00;;;;;;;6.05;82.67;96524.94;5012436;28;20197;-59
2022/01/09 01:45:45;;;;;;;0.77;0.20;;;;;;;6.08;81.32;96533.31;5012312;28;20203;-59
2022/01/09 01:48:12;;;;;;;0.17;0.10;;;;;;;6.04;82.46;96515.53;5011737;28;20207;-59
2022/01/09 01:50:41;;;;;;;0.20;0.10;;;;;;;6.02;81.46;96540.81;4995321;28;20278;-59
2022/01/09 01:53:12;;;;;;;0.80;0.20;;;;;;;5.99;81.88;96533.34;4992632;28;20197;-59
2022/01/09 01:55:40;;;;;;;0.37;0.07;;;;;;;6.02;81.48;96534.81;4992688;28;20578;-60
2022/01/09 01:58:10;;;;;;;0.10;0.10;;;;;;;6.07;81.23;96542.06;4992158;28;20727;-59
2022/01/09 02:00:39;;;;;;;0.10;0.10;;;;;;;6.04;81.31;96533.69;4992553;28;20197;-59
2022/01/09 02:03:08;;;;;;;0.93;0.30;;;;;;;6.03;80.82;96526.06;4992395;28;20652;-59
2022/01/09 02:05:36;;;;;;;0.43;0.10;;;;;;;5.98;82.16;96544.69;5002384;28;20272;-59
2022/01/09 02:08:03;;;;;;;0.10;0.10;;;;;;;5.99;82.61;96537.72;5011647;28;20255;-59
2022/01/09 02:10:30;;;;;;;0.30;0.10;;;;;;;5.97;81.71;96543.09;5011226;28;20233;-60
2022/01/09 02:12:57;;;;;;;0.53;0.20;;;;;;;5.94;83.23;96546.03;5011967;28;20195;-59
2022/01/09 02:15:31;;;;;;;0.67;0.20;;;;;;;5.84;83.98;96550.63;5011584;28;20189;-60
2022/01/09 02:18:02;;;;;;;0.23;0.10;;;;;;;5.85;84.83;96549.63;5011560;28;20299;-59
2022/01/09 02:20:30;;;;;;;0.20;0.10;;;;;;;5.78;85.66;96552.13;5011339;28;20708;-58
2022/01/09 02:22:57;;;;;;;0.00;0.00;;;;;;;5.82;83.53;96553.41;5011918;28;20185;-59
2022/01/09 02:25:26;;;;;;;0.23;0.10;;;;;;;5.81;84.35;96556.97;5012196;28;20275;-59
2022/01/09 02:27:53;;;;;;;0.20;0.10;;;;;;;5.81;83.45;96554.38;5010818;28;20208;-59
2022/01/09 02:30:19;;;;;;;0.33;0.10;;;;;;;5.85;82.98;96550.44;4993175;28;20206;-59
2022/01/09 02:32:46;;;;;;;0.33;0.30;;;;;;;5.76;84.27;96567.81;5011544;28;20674;-59
2022/01/09 02:35:13;;;;;;;0.50;0.20;;;;;;;5.83;81.99;96536.06;5011725;28;20199;-59
2022/01/09 02:37:41;;;;;;;0.10;0.10;;;;;;;5.82;82.73;96553.41;5010525;28;20295;-59
2022/01/09 02:40:09;;;;;;;0.57;0.17;;;;;;;5.84;81.69;96551.41;5010530;28;20185;-58
2022/01/09 02:42:36;;;;;;;0.60;0.30;;;;;;;5.82;82.89;96561.16;5011478;28;20185;-59
2022/01/09 02:45:03;;;;;;;0.37;0.20;;;;;;;5.83;81.87;96561.94;5011775;28;20200;-60
2022/01/09 02:47:33;;;;;;;0.57;0.10;;;;;;;5.82;82.96;96568.94;5011549;28;20599;-60
2022/01/09 02:50:09;;;;;;;0.10;0.10;;;;;;;5.84;81.56;96574.72;4999644;28;20269;-59
2022/01/09 02:52:48;;;;;;;0.10;0.10;;;;;;;5.88;81.00;96590.72;4991653;28;20180;-60
2022/01/09 02:55:16;;;;;;;0.60;0.10;;;;;;;5.89;80.92;96582.78;4991899;28;20189;-59
2022/01/09 02:57:44;;;;;;;0.40;0.20;;;;;;;5.88;81.13;96603.66;4991798;28;20714;-59
2022/01/09 03:00:14;;;;;;;0.93;0.20;;;;;;;5.88;81.31;96598.50;4990941;28;20284;-58
2022/01/09 03:02:40;;;;;;;0.20;0.10;;;;;;;5.90;80.03;96617.25;4991875;28;20648;-59
2022/01/09 03:05:08;;;;;;;0.20;0.20;;;;;;;5.88;82.50;96608.84;4995814;28;20295;-59
2022/01/09 03:07:35;;;;;;;0.20;0.20;;;;;;;5.82;82.31;96599.19;5005789;28;20212;-60
2022/01/09 03:10:02;;;;;;;0.30;0.10;;;;;;;5.72;84.69;96627.88;5010345;28;20578;-59
2022/01/09 03:12:30;;;;;;;0.30;0.10;;;;;;;5.75;83.99;96615.38;5011597;28;20219;-60
2022/01/09 03:14:57;;;;;;;0.77;0.13;;;;;;;5.71;84.73;96634.81;5011290;28;20290;-60
2022/01/09 03:17:23;;;;;;;0.20;0.10;;;;;;;5.65;84.82;96645.84;5010744;28;20184;-58
2022/01/09 03:19:50;;;;;;;1.60;0.13;;;;;;;5.64;85.83;96639.06;5010314;28;20185;-58
2022/01/09 03:22:17;;;;;;;0.00;0.00;;;;;;;5.49;88.04;96669.19;5011282;28;20557;-60
2022/01/09 03:24:44;;;;;;;0.10;0.10;;;;;;;5.37;87.28;96664.38;5011303;28;20566;-60
2022/01/09 03:27:11;;;;;;;0.13;0.10;;;;;;;5.28;89.65;96684.31;5010883;28;20193;-59
2022/01/09 03:29:39;;;;;;;0.47;0.10;;;;;;;5.19;89.77;96674.16;5009700;28;20212;-59
2022/01/09 03:32:07;;;;;;;0.10;0.10;;;;;;;5.17;89.87;96685.47;5010980;28;20185;-59
2022/01/09 03:34:35;;;;;;;0.10;0.10;;;;;;;5.02;92.89;96726.69;5011432;28;20192;-59
2022/01/09 03:37:01;;;;;;;0.20;0.10;;;;;;;4.89;91.90;96739.28;5011336;28;20718;-59
2022/01/09 03:39:28;;;;;;;0.17;0.10;;;;;;;4.83;93.11;96724.41;5010609;28;20636;-59
2022/01/09 03:41:58;;;;;;;0.10;0.10;;;;;;;4.75;94.61;96751.09;5010057;28;20181;-59
2022/01/09 03:44:25;;;;;;;0.23;0.13;;;;;;;4.68;95.37;96758.69;5011354;28;20687;-59
2022/01/09 03:46:53;;;;;;;0.20;0.10;;;;;;;4.63;95.73;96778.19;5010807;28;20188;-59
2022/01/09 03:49:20;;;;;;;0.43;0.20;;;;;;;4.55;95.37;96804.84;5006117;28;20209;-59
2022/01/09 03:51:50;;;;;;;0.17;0.10;;;;;;;4.31;97.84;96842.53;4994323;28;20200;-59
2022/01/09 03:54:17;;;;;;;0.60;0.20;;;;;;;4.21;98.75;96880.59;4994602;28;20622;-59
2022/01/09 03:56:44;;;;;;;0.20;0.10;;;;;;;4.09;100.00;96878.28;4995002;28;20177;-58
2022/01/09 03:59:11;;;;;;;0.20;0.13;;;;;;;3.97;100.00;96918.22;4994553;28;20705;-60
2022/01/09 04:01:38;;;;;;;0.40;0.13;;;;;;;3.77;97.24;96899.53;4994195;28;20268;-60
2022/01/09 04:04:06;;;;;;;0.00;0.00;;;;;;;3.66;98.30;96916.06;4994737;28;20185;-60
2022/01/09 04:06:33;;;;;;;0.10;0.10;;;;;;;3.59;100.00;96926.16;4999745;28;20190;-59
2022/01/09 04:09:06;;;;;;;0.20;0.10;;;;;;;3.57;98.34;96951.28;5010844;28;20223;-59
2022/01/09 04:11:37;;;;;;;0.10;0.10;;;;;;;3.52;99.13;96951.75;5013838;28;20193;-59
2022/01/09 04:14:04;;;;;;;0.30;0.00;;;;;;;3.47;99.20;96956.53;5013954;28;20184;-59
2022/01/09 04:16:31;;;;;;;0.63;0.10;;;;;;;3.37;100.00;96966.13;5014085;28;20184;-59
2022/01/09 04:18:58;;;;;;;0.10;0.10;;;;;;;3.39;100.00;96984.84;5013556;28;20220;-59
2022/01/09 04:21:26;;;;;;;1.53;0.30;;;;;;;3.22;98.83;96976.94;5013208;28;20189;-59
2022/01/09 04:23:52;;;;;;;0.10;0.10;;;;;;;3.18;99.26;96992.84;5013832;28;20269;-58
2022/01/09 04:26:21;;;;;;;0.37;0.10;;;;;;;3.07;98.89;96991.25;5013845;28;20212;-59
2022/01/09 04:28:48;;;;;;;0.57;0.10;;;;;;;2.99;97.40;97016.94;5013368;28;20216;-59
2022/01/09 04:31:15;;;;;;;1.07;0.10;;;;;;;2.94;98.74;97014.81;5012575;28;20195;-59
2022/01/09 04:33:43;;;;;;;0.10;0.10;;;;;;;2.94;98.37;97014.81;5013783;28;20189;-59
2022/01/09 04:36:10;;;;;;;0.30;0.10;;;;;;;2.89;98.35;97014.41;5013704;28;20201;-59
2022/01/09 04:38:38;;;;;;;0.20;0.10;;;;;;;2.90;97.55;97022.00;5013495;28;20231;-58
2022/01/09 04:41:05;;;;;;;0.10;0.10;;;;;;;2.85;99.24;97031.09;5012673;28;20188;-59
2022/01/09 04:43:32;;;;;;;0.10;0.10;;;;;;;2.95;97.66;97042.19;5013115;28;20193;-58
2022/01/09 04:45:58;;;;;;;0.10;0.10;;;;;;;2.88;99.59;97041.94;5013575;28;20188;-59
2022/01/09 04:48:25;;;;;;;0.40;0.10;;;;;;;2.89;99.86;97043.56;5011849;28;20198;-59
2022/01/09 04:50:53;;;;;;;0.53;0.20;;;;;;;2.91;99.93;97056.31;4994463;28;20228;-59
2022/01/09 04:53:21;;;;;;;0.20;0.20;;;;;;;2.92;100.00;97056.16;4993923;28;20248;-59
2022/01/09 04:55:50;;;;;;;0.47;0.23;;;;;;;2.98;100.00;97059.13;4993193;28;20192;-59
2022/01/09 04:58:17;;;;;;;0.43;0.23;;;;;;;3.02;100.00;97081.09;4993631;28;20209;-59
2022/01/09 05:00:45;;;;;;;0.63;0.20;;;;;;;3.05;98.45;97073.06;4991907;28;20198;-59
2022/01/09 05:03:13;;;;;;;0.50;0.20;;;;;;;3.12;97.70;97087.03;4994003;28;20189;-59
2022/01/09 05:05:40;;;;;;;0.17;0.10;;;;;;;3.09;98.53;97079.56;4993642;28;20267;-59
2022/01/09 05:08:08;;;;;;;0.20;0.20;;;;;;;3.13;97.82;97090.44;4999342;28;20205;-59
2022/01/09 05:10:34;;;;;;;1.07;0.30;;;;;;;3.16;96.38;97085.78;4992261;28;20570;-60
2022/01/09 05:13:03;;;;;;;1.23;0.40;;;;;;;3.15;97.86;97091.09;4993400;28;20197;-60
2022/01/09 05:15:30;;;;;;;0.83;0.30;;;;;;;3.10;99.63;97109.56;4993332;28;20216;-60
2022/01/09 05:18:00;;;;;;;0.30;0.30;;;;;;;3.06;99.84;97106.47;4984299;28;20218;-56
2022/01/09 05:20:27;;;;;;;0.30;0.20;;;;;;;3.01;100.00;97116.38;4971495;28;20660;-55
2022/01/09 05:22:53;;;;;;;0.50;0.30;;;;;;;2.95;100.00;97120.31;4972853;28;20188;-55
2022/01/09 05:25:20;;;;;;;0.60;0.40;;;;;;;3.10;100.00;97127.59;4973259;28;20269;-57
2022/01/09 05:27:47;;;;;;;0.20;0.13;;;;;;;2.99;99.87;97136.34;4973844;28;20214;-56
2022/01/09 05:30:15;;;;;;;1.03;0.40;;;;;;;2.93;100.00;97129.97;4973455;28;20236;-58
2022/01/09 05:32:42;;;;;;;0.37;0.37;;;;;;;2.95;98.65;97145.28;4973866;28;20293;-56
2022/01/09 05:35:10;;;;;;;1.07;0.40;;;;;;;2.95;100.00;97137.56;4973684;28;20186;-58
2022/01/09 05:37:37;;;;;;;1.23;0.30;;;;;;;2.94;99.54;97166.88;4973530;28;20217;-57
2022/01/09 05:40:04;;;;;;;0.80;0.30;;;;;;;3.00;97.53;97168.91;4973088;28;20218;-56
2022/01/09 05:42:31;;;;;;;0.80;0.20;;;;;;;3.00;97.58;97163.75;4973654;28;20274;-58
2022/01/09 05:44:58;;;;;;;0.20;0.20;;;;;;;3.01;96.52;97185.16;4973609;28;20186;-57
2022/01/09 05:47:26;;;;;;;0.57;0.40;;;;;;;2.92;98.11;97176.50;4973565;28;20220;-58
2022/01/09 05:49:53;;;;;;;2.87;0.40;;;;;;;2.97;97.78;97183.81;4972897;28;20269;-57
2022/01/09 05:52:19;;;;;;;0.97;0.30;;;;;;;2.95;98.84;97184.75;4973935;28;20277;-58
2022/01/09 05:54:47;;;;;;;0.80;0.40;;;;;;;2.90;99.47;97184.34;4973738;28;20273;-61
2022/01/09 05:57:14;;;;;;;1.07;0.50;;;;;;;2.92;100.00;97191.97;4973521;28;20198;-61
2022/01/09 05:59:41;;;;;;;1.57;0.40;;;;;;;2.91;99.13;97216.13;4973017;28;20296;-59
2022/01/09 06:02:08;;;;;;;1.90;0.70;;;;;;;2.88;99.67;97226.69;4972473;28;20711;-60
2022/01/09 06:04:36;;;;;;;3.00;0.70;;;;;;;2.86;97.30;97221.66;4973702;28;20703;-60
2022/01/09 06:07:03;;;;;;;3.80;0.80;;;;;;;2.88;98.51;97231.84;4973335;28;20198;-55
2022/01/09 06:09:30;;;;;;;2.53;0.77;;;;;;;2.86;98.52;97233.75;4973102;28;20198;-56
2022/01/09 06:11:56;;;;;;;2.47;0.80;;;;;;;2.79;98.88;97257.50;4972530;28;20192;-54
2022/01/09 06:14:23;;;;;;;2.37;1.10;;;;;;;2.82;97.95;97265.91;4973213;28;20190;-55
2022/01/09 06:16:50;;;;;;;4.80;1.10;;;;;;;2.82;98.12;97248.66;4973134;28;20280;-56
2022/01/09 06:19:18;;;;;;;4.17;1.07;;;;;;;2.83;97.87;97283.00;4972851;28;20210;-56
2022/01/09 06:21:46;;;;;;;3.77;1.13;;;;;;;2.84;98.03;97294.94;4972184;28;20226;-56
2022/01/09 06:24:13;;;;;;;5.63;0.80;;;;;;;2.80;98.17;97295.19;4973064;28;20277;-56
2022/01/09 06:26:40;;;;;;;6.27;1.10;;;;;;;2.77;98.39;97303.19;4972844;28;20277;-56
2022/01/09 06:29:06;;;;;;;5.97;1.07;;;;;;;2.74;97.97;97303.47;4972922;28;20730;-56
2022/01/09 06:31:33;;;;;;;3.57;0.93;;;;;;;2.74;98.42;97302.63;4972296;28;20191;-56
2022/01/09 06:34:00;;;;;;;1.07;0.73;;;;;;;2.77;97.04;97316.06;4973318;28;20659;-55
2022/01/09 06:36:27;;;;;;;3.40;0.80;;;;;;;2.74;98.02;97305.22;4972838;28;20281;-55
2022/01/09 06:38:55;;;;;;;3.00;0.77;;;;;;;2.73;96.96;97291.53;4972952;28;20285;-56
2022/01/09 06:41:21;;;;;;;3.97;0.93;;;;;;;2.72;97.58;97313.09;4972616;28;20190;-56
2022/01/09 06:43:48;;;;;;;5.07;1.70;;;;;;;2.64;95.82;97307.78;4973089;28;20189;-56
2022/01/09 06:46:15;;;;;;;4.80;0.80;;;;;;;2.66;97.20;97332.44;4973102;28;20201;-56
2022/01/09 06:48:42;;;;;;;5.90;0.87;;;;;;;2.68;94.99;97337.50;4973086;28;20204;-57
2022/01/09 06:51:10;;;;;;;3.13;0.67;;;;;;;2.69;95.45;97338.28;4972329;28;20679;-56
2022/01/09 06:53:37;;;;;;;2.80;0.73;;;;;;;2.71;93.71;97328.66;4972979;28;20218;-57
2022/01/09 06:56:05;;;;;;;3.80;0.90;;;;;;;2.73;93.83;97344.81;4971878;28;20526;-56
2022/01/09 06:58:32;;;;;;;2.07;0.60;;;;;;;2.80;91.92;97349.31;4973327;28;21136;-56
2022/01/09 07:00:59;;;;;;;4.57;1.03;;;;;;;2.84;91.94;97338.75;4972140;28;20281;-57
2022/01/09 07:03:26;;;;;;;8.03;1.53;;;;;;;2.83;92.40;97335.34;4973328;28;20245;-57
2022/01/09 07:05:53;;;;;;;5.10;0.90;;;;;;;2.83;93.06;97332.75;4972899;28;20265;-57
2022/01/09 07:08:19;;;;;;;4.33;0.90;;;;;;;2.84;92.87;97331.00;4972920;28;20547;-56
2022/01/09 07:10:47;;;;;;;5.60;1.33;;;;;;;2.83;94.34;97339.69;4972453;28;20182;-57
2022/01/09 07:13:15;;;;;;;6.27;1.70;;;;;;;2.82;92.17;97340.63;4972947;28;20276;-57
2022/01/09 07:15:42;;;;;;;7.67;1.00;;;;;;;2.86;91.42;97347.94;4973023;28;20375;-55
2022/01/09 07:18:09;;;;;;;9.07;1.70;;;;;;;2.90;90.07;97338.22;4972663;28;20807;-56
2022/01/09 07:20:36;;;;;;;6.97;1.93;;;;;;;2.90;90.33;97348.50;4972074;28;20228;-58
2022/01/09 07:23:03;;;;;;;6.00;2.10;;;;;;;2.90;90.09;97361.41;4972685;28;20212;-57
2022/01/09 07:25:30;;;;;;;3.50;1.13;;;;;;;2.89;90.76;97377.81;4975633;28;20202;-56
2022/01/09 07:27:58;;;;;;;4.00;0.80;;;;;;;2.91;91.24;97363.84;4976260;28;20213;-57
2022/01/09 07:30:28;;;;;;;7.03;1.50;;;;;;;2.99;87.98;97376.06;4985702;28;20299;-57
2022/01/09 07:32:54;;;;;;;4.23;1.30;;;;;;;2.99;88.98;97375.25;4994664;28;20193;-54
2022/01/09 07:35:21;;;;;;;6.53;0.90;;;;;;;2.97;89.77;97383.13;4994824;28;20313;-57
2022/01/09 07:37:48;;;;;;;9.97;1.57;;;;;;;3.02;89.00;97368.06;4994828;28;20209;-55
2022/01/09 07:40:17;;;;;;;5.60;1.00;;;;;;;3.01;90.04;97381.91;4994221;28;20198;-56
2022/01/09 07:42:46;;;;;;;7.13;1.37;;;;;;;3.02;89.40;97364.66;4994669;28;20260;-57
2022/01/09 07:45:13;;;;;;;4.70;1.20;;;;;;;3.03;88.67;97369.69;5001617;28;20283;-57
2022/01/09 07:47:41;;;;;;;5.47;0.90;;;;;;;3.08;87.46;97375.28;4994729;28;20291;-57
2022/01/09 07:50:11;;;;;;;10.13;1.87;;;;;;;3.08;87.60;97370.13;4988911;28;20662;-58
2022/01/09 07:52:38;;;;;;;6.20;1.47;;;;;;;3.09;88.54;97379.47;4994691;28;20678;-56
2022/01/09 07:55:07;;;;;;;10.30;2.10;;;;;;;3.14;88.16;97383.41;4994283;28;20196;-56
2022/01/09 07:57:34;;;;;;;7.50;1.50;;;;;;;3.14;88.35;97388.56;4994328;28;20268;-56
2022/01/09 08:00:03;;;;;;;6.17;1.30;;;;;;;3.20;87.52;97380.28;4993770;28;20288;-57
2022/01/09 08:02:41;;;;;;;6.33;1.60;;;;;;;3.16;88.52;97397.00;4994552;28;20276;-57
2022/01/09 08:05:08;;;;;;;4.70;1.50;;;;;;;3.22;88.25;97406.75;4994831;28;20195;-54
2022/01/09 08:07:35;;;;;;;8.57;1.63;;;;;;;3.29;86.44;97389.78;4994107;28;20256;-56
2022/01/09 08:10:02;;;;;;;10.00;1.17;;;;;;;3.32;88.28;97399.81;4993654;28;20663;-55
2022/01/09 08:12:29;;;;;;;7.57;1.70;;;;;;;3.28;85.60;97392.50;4994310;28;20192;-57
2022/01/09 08:14:55;;;;;;;8.17;1.80;;;;;;;3.35;87.56;97404.72;4994187;28;20220;-57
2022/01/09 08:17:22;;;;;;;8.23;2.13;;;;;;;3.38;87.52;97425.09;4994168;28;20207;-55
2022/01/09 08:19:51;;;;;;;15.63;4.10;;;;;;;3.37;85.14;97427.81;4993424;28;20203;-54
2022/01/09 08:22:18;;;;;;;13.37;4.23;;;;;;;3.35;84.78;97422.78;4994096;28;20642;-60
2022/01/09 08:24:45;;;;;;;5.50;2.37;;;;;;;3.47;81.78;97436.38;4994089;28;20731;-55
2022/01/09 08:27:12;;;;;;;7.33;2.80;;;;;;;3.47;85.03;97428.63;4993886;28;20248;-52
2022/01/09 08:29:39;;;;;;;5.10;1.40;;;;;;;3.58;82.81;97442.34;4993752;28;20205;-58
2022/01/09 08:32:07;;;;;;;4.90;1.40;;;;;;;3.57;82.22;97428.63;4993652;28;20182;-59
2022/01/09 08:34:34;;;;;;;8.50;2.50;;;;;;;3.51;85.15;97427.41;4993800;28;20189;-60
2022/01/09 08:37:02;;;;;;;7.03;2.13;;;;;;;3.42;86.91;97428.22;4993867;28;20190;-60
2022/01/09 08:39:30;;;;;;;7.50;2.13;;;;;;;3.48;86.55;97438.00;4993880;28;20209;-60
2022/01/09 08:41:56;;;;;;;7.93;2.30;;;;;;;3.45;84.81;97440.84;4993006;28;20189;-59
2022/01/09 08:44:23;;;;;;;5.90;2.43;;;;;;;3.46;86.00;97436.50;4993588;28;20185;-59
2022/01/09 08:46:50;;;;;;;7.53;1.20;;;;;;;3.48;83.01;97438.00;4994117;28;20189;-59
2022/01/09 08:49:17;;;;;;;8.03;1.20;;;;;;;3.59;80.91;97439.63;4994040;28;20209;-60
2022/01/09 08:51:44;;;;;;;9.93;2.10;;;;;;;3.59;81.74;97441.41;4993169;28;20185;-60
2022/01/09 08:54:12;;;;;;;11.67;2.30;;;;;;;3.48;83.20;97440.59;4994073;28;20193;-59
2022/01/09 08:56:40;;;;;;;7.70;1.40;;;;;;;3.56;81.32;97432.16;4994270;28;20189;-60
2022/01/09 08:59:06;;;;;;;10.83;1.90;;;;;;;3.52;82.58;97434.22;4993584;28;20229;-60
2022/01/09 09:01:33;;;;;;;10.48;2.22;;;;;;;3.62;82.48;97447.09;4992226;28;20523;-58
2022/01/09 09:04:00;;;;;;;8.13;1.93;;;;;;;3.61;84.05;97437.72;4993696;28;20602;-59
2022/01/09 09:06:27;;;;;;;8.30;1.97;;;;;;;3.62;84.38;97438.56;4988628;28;20198;-59
2022/01/09 09:08:53;;;;;;;4.60;1.43;;;;;;;3.64;83.09;97445.19;4993397;28;20289;-59
2022/01/09 09:11:22;;;;;;;9.03;1.93;;;;;;;3.60;82.98;97446.41;4992165;28;20213;-59
2022/01/09 09:13:48;;;;;;;11.77;2.57;;;;;;;3.58;83.17;97448.31;4993136;28;20213;-60
2022/01/09 09:16:16;;;;;;;15.70;3.47;;;;;;;3.69;81.89;97452.53;4993402;28;20681;-59
2022/01/09 09:18:44;;;;;;;31.87;20.97;;;;;;;3.67;82.49;97450.09;4993096;28;20210;-59
2022/01/09 09:21:11;;;;;;;8.93;4.37;;;;;;;3.81;80.56;97450.63;4992282;28;20280;-58
2022/01/09 09:23:38;;;;;;;12.53;2.20;;;;;;;3.77;80.24;97464.75;4993382;28;20181;-57
2022/01/09 09:26:04;;;;;;;6.77;2.07;;;;;;;3.79;80.93;97471.41;4993046;28;20192;-57
2022/01/09 09:28:32;;;;;;;7.93;2.23;;;;;;;3.77;80.73;97480.25;4992955;28;20311;-58
2022/01/09 09:30:59;;;;;;;16.40;3.23;;;;;;;3.75;80.74;97487.31;4992108;28;20358;-57
2022/01/09 09:33:26;;;;;;;8.93;1.40;;;;;;;3.79;82.16;97494.63;4992801;28;20827;-57
2022/01/09 09:35:53;;;;;;;10.07;1.73;;;;;;;3.69;82.61;97497.22;4993149;28;20199;-58
2022/01/09 09:38:20;;;;;;;6.13;1.80;;;;;;;3.75;84.36;97523.44;4992794;28;20559;-57
2022/01/09 09:40:46;;;;;;;7.80;2.90;;;;;;;3.77;81.41;97518.97;4992273;28;20292;-58
2022/01/09 09:43:13;;;;;;;10.53;2.63;;;;;;;3.71;83.76;97517.72;4992785;28;20634;-57
2022/01/09 09:45:41;;;;;;;10.60;2.77;;;;;;;3.54;86.09;97516.63;4992731;28;20958;-57
2022/01/09 09:48:08;;;;;;;8.53;2.87;;;;;;;3.66;83.95;97528.47;4992175;28;20202;-58
2022/01/09 09:50:35;;;;;;;8.57;2.10;;;;;;;3.46;87.76;97516.47;4992126;28;20421;-57
2022/01/09 09:53:02;;;;;;;6.93;2.10;;;;;;;3.62;86.16;97503.06;4992414;28;20193;-58
2022/01/09 09:55:29;;;;;;;11.33;1.70;;;;;;;3.61;87.01;97515.13;4992969;28;20197;-60
2022/01/09 09:57:56;;;;;;;7.43;1.80;;;;;;;3.81;85.46;97507.41;4992886;28;20213;-60
2022/01/09 10:00:24;;;;;;;6.77;1.53;;;;;;;3.88;85.54;97510.25;4992174;28;20308;-56
2022/01/09 10:02:56;;;;;;;8.93;1.70;;;;;;;3.91;84.36;97500.50;4993017;28;20681;-55
2022/01/09 10:05:25;;;;;;;10.70;2.43;;;;;;;3.98;80.24;97509.31;4992705;28;20280;-57
2022/01/09 10:07:53;;;;;;;10.47;2.37;;;;;;;3.94;81.37;97512.28;4992742;28;20296;-55
2022/01/09 10:10:22;;;;;;;10.33;2.53;;;;;;;3.92;81.62;97512.44;4992017;28;20253;-56
2022/01/09 10:12:49;;;;;;;14.40;4.80;;;;;;;3.99;82.85;97520.44;4992838;28;20193;-56
2022/01/09 10:15:18;;;;;;;10.57;4.37;;;;;;;4.14;83.81;97528.63;4992729;28;20685;-53
2022/01/09 10:17:47;;;;;;;13.13;3.73;;;;;;;4.15;81.92;97525.09;4993167;28;20201;-56
2022/01/09 10:20:17;;;;;;;9.67;3.23;;;;;;;4.29;83.34;97510.91;4991815;28;20292;-58
2022/01/09 10:22:46;;;;;;;10.97;2.40;;;;;;;4.37;82.97;97512.78;4992619;28;20297;-56
2022/01/09 10:25:23;;;;;;;13.17;4.30;;;;;;;4.28;84.99;97519.63;4992576;28;20726;-54
2022/01/09 10:27:51;;;;;;;13.20;2.03;;;;;;;4.28;82.07;97511.88;4992455;28;20214;-52
2022/01/09 10:30:22;;;;;;;9.63;2.90;;;;;;;4.33;80.84;97512.28;4991973;28;20540;-55
2022/01/09 10:32:54;;;;;;;10.47;3.43;;;;;;;4.38;81.94;97509.25;4992694;28;20197;-55
2022/01/09 10:35:24;;;;;;;9.30;2.00;;;;;;;4.34;81.58;97510.50;4992313;28;20208;-55
2022/01/09 10:38:04;;;;;;;4.10;1.67;;;;;;;4.43;81.65;97507.91;4992343;28;20237;-57
2022/01/09 10:40:34;;;;;;;11.37;1.90;;;;;;;4.30;80.69;97515.13;4991648;28;20283;-58
2022/01/09 10:43:03;;;;;;;7.90;1.80;;;;;;;4.39;82.17;97522.06;4992442;28;20264;-55
2022/01/09 10:45:31;;;;;;;6.37;2.43;;;;;;;4.40;82.71;97528.84;4992390;28;20265;-55
2022/01/09 10:48:04;;;;;;;7.83;1.60;;;;;;;4.27;81.59;97516.22;4992375;28;20205;-54
2022/01/09 10:50:36;;;;;;;7.00;1.50;;;;;;;4.39;79.76;97528.97;4991286;28;20189;-57
2022/01/09 10:53:29;;;;;;;8.50;1.60;;;;;;;4.29;82.42;97524.63;4991793;28;20261;-57
2022/01/09 10:56:19;;;;;;;9.17;1.47;;;;;;;4.19;81.55;97526.44;4990763;28;20201;-54
2022/01/09 10:58:47;;;;;;;5.23;1.40;;;;;;;4.34;81.76;97523.41;4990782;28;20229;-54
2022/01/09 11:01:24;;;;;;;8.53;3.30;;;;;;;4.44;82.69;97526.78;4995317;28;20217;-55
2022/01/09 11:03:53;;;;;;;7.43;1.90;;;;;;;4.52;81.76;97529.50;4996546;28;20277;-56
2022/01/09 11:06:22;;;;;;;10.20;1.60;;;;;;;4.35;81.60;97525.88;4996297;28;20349;-56
2022/01/09 11:08:49;;;;;;;7.63;1.50;;;;;;;4.37;81.27;97529.13;4995850;28;20209;-52
2022/01/09 11:11:24;;;;;;;8.77;1.30;;;;;;;4.58;78.14;97525.56;4995267;28;20181;-57
2022/01/09 11:13:53;;;;;;;8.30;1.50;;;;;;;4.72;79.54;97519.09;4996174;28;20189;-55
2022/01/09 11:16:33;;;;;;;6.23;1.30;;;;;;;4.54;79.11;97525.00;5027663;28;20192;-56
2022/01/09 11:19:01;;;;;;;6.77;2.03;;;;;;;4.65;80.09;97508.53;5033449;22;20648;-61
2022/01/09 11:21:30;;;;;;;5.30;1.30;;;;;;;4.72;80.61;97513.94;5021100;28;20215;-57
2022/01/09 11:24:14;;;;;;;6.70;1.60;;;;;;;4.68;80.11;97521.19;5014139;28;20207;-58
2022/01/09 11:26:50;;;;;;;9.67;1.90;;;;;;;4.63;80.01;97514.78;5007454;28;20193;-57
2022/01/09 11:29:24;;;;;;;10.73;4.97;;;;;;;4.51;80.58;97511.56;5015354;28;20724;-58
2022/01/09 11:32:03;;;;;;;6.60;2.20;;;;;;;4.40;81.76;97502.19;5014808;28;20188;-57
2022/01/09 11:34:40;;;;;;;8.50;1.93;;;;;;;4.27;84.17;97511.03;5015692;28;20200;-59
2022/01/09 11:37:23;;;;;;;8.97;4.33;;;;;;;4.12;83.63;97525.34;5015437;28;20569;-58
2022/01/09 11:39:50;;;;;;;6.07;1.47;;;;;;;4.19;82.54;97523.84;5014469;28;20705;-58
2022/01/09 11:42:18;;;;;;;4.73;1.50;;;;;;;4.08;83.35;97529.16;5013829;28;20307;-58
2022/01/09 11:44:46;;;;;;;5.37;1.70;;;;;;;4.03;84.49;97523.59;5015399;28;20276;-56